Time;durP1;ratioP1;P1;durP2;ratioP2;P2;SDS_P1;SDS_P2;PMS_P1;PMS_P2;Temp;Humidity;BMP_temperature;BMP_pressure;BME280_temperature;BME280_humidity;BME280_pressure;Samples;Min_cycle;Max_cycle;Signal;HPM_P1;HPM_P2
2022/12/12 08:27:58;;;;;;;;;;;1.10;99.90;;;;;;2838663;22;22767;-74
2022/12/12 08:30:24;;;;;;;;;;;1.20;99.90;;;;;;6215024;23;19962;-71
2022/12/12 08:32:49;;;;;;;;;;;1.20;99.90;;;;;;6217685;23;20342;-72
2022/12/12 08:35:15;;;;;;;;;;;1.20;99.90;;;;;;6218037;23;20372;-72
2022/12/12 08:37:40;;;;;;;;;;;1.20;99.90;;;;;;6217499;23;19903;-74
2022/12/12 08:40:06;;;;;;;;;;;1.30;99.90;;;;;;6217631;23;19907;-72
2022/12/12 08:42:31;;;;;;;;;;;1.30;99.90;;;;;;6218270;23;19907;-74
2022/12/12 08:44:57;;;;;;;;;;;1.40;99.90;;;;;;6217935;23;19982;-72
2022/12/12 08:47:22;;;;;;;;;;;1.30;99.90;;;;;;6217548;23;19922;-73
2022/12/12 08:49:49;;;;;;;;;;;1.30;99.90;;;;;;6217880;23;20282;-74
2022/12/12 08:52:14;;;;;;;;;;;1.30;99.90;;;;;;6217966;23;19904;-72
2022/12/12 08:54:40;;;;;;;;;;;1.40;99.90;;;;;;6217868;23;19921;-71
2022/12/12 08:57:05;;;;;;;;;;;1.30;99.90;;;;;;6218360;23;19955;-73
2022/12/12 08:59:31;;;;;;;;;;;1.40;99.90;;;;;;6216435;23;20298;-72
2022/12/12 09:01:56;;;;;;;;;;;1.30;99.90;;;;;;6217383;23;19899;-71
2022/12/12 09:04:22;;;;;;;;;;;1.30;99.90;;;;;;6217721;23;19961;-70
2022/12/12 09:06:48;;;;;;;;;;;1.30;99.90;;;;;;6217211;23;19958;-71
2022/12/12 09:09:13;;;;;;;;;;;1.30;99.90;;;;;;6247426;23;19906;-71
2022/12/12 09:11:39;;;;;;;;;;;1.30;99.90;;;;;;6247743;23;19900;-69
2022/12/12 09:14:04;;;;;;;;;;;1.40;99.90;;;;;;6248004;23;20210;-74
2022/12/12 09:16:30;;;;;;;;;;;1.40;99.90;;;;;;6247697;23;19982;-73
2022/12/12 09:18:55;;;;;;;;;;;1.60;99.90;;;;;;6220727;23;19903;-74
2022/12/12 09:21:21;;;;;;;;;;;1.70;99.90;;;;;;6247643;23;19911;-73
2022/12/12 09:23:47;;;;;;;;;;;1.80;99.90;;;;;;6247874;22;19900;-73
2022/12/12 09:26:12;;;;;;;;;;;1.70;99.90;;;;;;6247836;23;19939;-72
2022/12/12 09:28:41;;;;;;;;;;;1.60;99.90;;;;;;6247365;22;20280;-71
2022/12/12 09:31:07;;;;;;;;;;;1.50;99.90;;;;;;6247976;23;19903;-72
2022/12/12 09:33:33;;;;;;;;;;;1.70;99.90;;;;;;6220654;23;19900;-71
2022/12/12 09:36:00;;;;;;;;;;;1.80;99.90;;;;;;6247517;23;19899;-72
2022/12/12 09:38:26;;;;;;;;;;;1.70;99.90;;;;;;6247377;23;20292;-71
2022/12/12 09:41:02;;;;;;;;;;;1.60;99.90;;;;;;6248141;23;19899;-73
2022/12/12 09:43:33;;;;;;;;;;;1.60;99.90;;;;;;6247813;23;20240;-72
2022/12/12 09:45:58;;;;;;;;;;;1.80;99.90;;;;;;6248182;23;19900;-72
2022/12/12 09:48:32;;;;;;;;;;;2.00;99.90;;;;;;6247337;23;19906;-73
2022/12/12 09:50:58;;;;;;;;;;;1.90;99.90;;;;;;6220065;23;19906;-75
2022/12/12 09:53:24;;;;;;;;;;;1.80;99.90;;;;;;6247056;23;19986;-73
2022/12/12 09:55:55;;;;;;;;;;;1.80;99.90;;;;;;6247128;23;20330;-75
2022/12/12 09:58:30;;;;;;;;;;;1.90;99.90;;;;;;6247397;23;19904;-71
2022/12/12 10:01:16;;;;;;;;;;;1.90;99.90;;;;;;6247946;23;19934;-67
2022/12/12 10:03:52;;;;;;;;;;;2.00;99.90;;;;;;6170903;23;19900;-73
2022/12/12 10:06:19;;;;;;;;;;;2.00;99.90;;;;;;6247499;23;19974;-72
2022/12/12 10:09:03;;;;;;;;;;;2.00;99.90;;;;;;6247345;23;19899;-70
2022/12/12 10:11:50;;;;;;;;;;;2.00;99.90;;;;;;6247186;23;19900;-70
2022/12/12 10:14:38;;;;;;;;;;;2.00;99.90;;;;;;6247335;23;19906;-70
2022/12/12 10:17:07;;;;;;;;;;;2.30;99.90;;;;;;6226800;23;19903;-70
2022/12/12 10:19:34;;;;;;;;;;;2.40;99.90;;;;;;6246922;23;19899;-72
2022/12/12 10:22:05;;;;;;;;;;;2.20;99.90;;;;;;6247174;23;20132;-72
2022/12/12 10:24:30;;;;;;;;;;;2.00;99.90;;;;;;6247014;22;19903;-71
2022/12/12 10:26:56;;;;;;;;;;;1.90;99.90;;;;;;6246988;23;19965;-66
2022/12/12 10:29:24;;;;;;;;;;;1.90;99.90;;;;;;6247489;23;19911;-69
2022/12/12 10:31:55;;;;;;;;;;;1.70;99.90;;;;;;6247033;23;19903;-73
2022/12/12 10:34:30;;;;;;;;;;;1.40;99.90;;;;;;6247578;23;19903;-71
2022/12/12 10:37:14;;;;;;;;;;;1.40;99.90;;;;;;6246808;23;19899;-72
2022/12/12 10:39:42;;;;;;;;;;;1.40;99.90;;;;;;6247379;23;19978;-72
2022/12/12 10:42:17;;;;;;;;;;;1.30;99.90;;;;;;6246835;23;19907;-72
2022/12/12 10:44:55;;;;;;;;;;;1.70;99.90;;;;;;6219691;23;19899;-73
2022/12/12 10:47:20;;;;;;;;;;;2.00;99.90;;;;;;6246844;23;19907;-72
2022/12/12 10:49:46;;;;;;;;;;;2.10;99.90;;;;;;6247163;23;20333;-70
2022/12/12 10:52:16;;;;;;;;;;;2.30;99.90;;;;;;6246820;23;19900;-71
2022/12/12 10:54:47;;;;;;;;;;;2.20;99.90;;;;;;6247197;23;19906;-71
2022/12/12 10:57:25;;;;;;;;;;;2.40;99.90;;;;;;6246663;23;19957;-71
2022/12/12 10:59:52;;;;;;;;;;;2.50;99.90;;;;;;6247030;23;19899;-76
2022/12/12 11:02:26;;;;;;;;;;;2.70;99.90;;;;;;6246835;23;19906;-71
2022/12/12 11:05:04;;;;;;;;;;;2.60;99.90;;;;;;6246698;23;19907;-71
2022/12/12 11:07:30;;;;;;;;;;;2.40;99.90;;;;;;6246923;23;19903;-77
2022/12/12 11:09:57;;;;;;;;;;;2.30;99.90;;;;;;6246511;23;20403;-74
2022/12/12 11:12:31;;;;;;;;;;;2.10;99.90;;;;;;6246733;23;19903;-76
2022/12/12 11:15:01;;;;;;;;;;;2.10;99.90;;;;;;6247302;23;19899;-68
2022/12/12 11:17:28;;;;;;;;;;;1.90;99.90;;;;;;6246717;23;19927;-74
2022/12/12 11:19:55;;;;;;;;;;;1.80;99.90;;;;;;6219603;23;20317;-74
2022/12/12 11:22:21;;;;;;;;;;;1.60;99.90;;;;;;6246470;23;19907;-69
2022/12/12 11:24:47;;;;;;;;;;;1.60;99.90;;;;;;6246982;22;19950;-68
2022/12/12 11:27:27;;;;;;;;;;;1.60;99.90;;;;;;6247315;23;19899;-71
2022/12/12 11:29:54;;;;;;;;;;;1.90;99.90;;;;;;6246961;22;19965;-73
2022/12/12 11:32:21;;;;;;;;;;;1.70;99.90;;;;;;6246171;23;19976;-72
2022/12/12 11:34:52;;;;;;;;;;;1.70;99.90;;;;;;6246871;23;20344;-75
2022/12/12 11:37:19;;;;;;;;;;;1.50;99.90;;;;;;6219723;23;20217;-67
2022/12/12 11:39:47;;;;;;;;;;;1.60;99.90;;;;;;6246413;23;19899;-67
2022/12/12 11:42:13;;;;;;;;;;;1.60;99.90;;;;;;6246158;23;19923;-66
2022/12/12 11:44:38;;;;;;;;;;;1.60;99.90;;;;;;6245501;23;19900;-66
2022/12/12 11:47:19;;;;;;;;;;;1.90;99.90;;;;;;6245880;23;19946;-67
2022/12/12 11:49:45;;;;;;;;;;;1.70;99.90;;;;;;6246390;23;19979;-67
2022/12/12 11:52:27;;;;;;;;;;;1.60;99.90;;;;;;6246107;23;19899;-66
2022/12/12 11:54:54;;;;;;;;;;;1.50;99.90;;;;;;6246012;23;19923;-66
2022/12/12 11:57:22;;;;;;;;;;;1.40;99.90;;;;;;6246175;23;19990;-66
2022/12/12 11:59:57;;;;;;;;;;;1.60;99.90;;;;;;6246709;23;19899;-66
2022/12/12 12:02:47;;;;;;;;;;;1.70;99.90;;;;;;6247174;23;19899;-67
2022/12/12 12:05:21;;;;;;;;;;;1.40;99.90;;;;;;6246424;23;19907;-68
2022/12/12 12:07:50;;;;;;;;;;;1.40;99.90;;;;;;6246742;23;19927;-66
2022/12/12 12:10:27;;;;;;;;;;;1.30;99.90;;;;;;6246398;23;19900;-66
2022/12/12 12:13:10;;;;;;;;;;;1.50;99.90;;;;;;6246420;23;20210;-65
2022/12/12 12:15:40;;;;;;;;;;;1.50;99.90;;;;;;6247256;23;19906;-68
2022/12/12 12:18:15;;;;;;;;;;;1.80;99.90;;;;;;6246208;23;19927;-69
2022/12/12 12:20:49;;;;;;;;;;;1.80;99.90;;;;;;6247083;23;19903;-68
2022/12/12 12:23:30;;;;;;;;;;;1.70;99.90;;;;;;6246647;23;19900;-68
2022/12/12 12:26:08;;;;;;;;;;;1.70;99.90;;;;;;6246649;22;19900;-69
2022/12/12 12:28:51;;;;;;;;;;;1.80;99.90;;;;;;6246067;23;19914;-69
2022/12/12 12:31:26;;;;;;;;;;;1.90;99.90;;;;;;6247620;23;20317;-67
2022/12/12 12:33:54;;;;;;;;;;;1.60;99.90;;;;;;6246595;23;19899;-69
2022/12/12 12:36:21;;;;;;;;;;;1.50;99.90;;;;;;6246947;23;19986;-67
2022/12/12 12:38:56;;;;;;;;;;;1.60;99.90;;;;;;6246148;23;19903;-69
2022/12/12 12:41:21;;;;;;;;;;;2.00;99.90;;;;;;6246250;23;20280;-68
2022/12/12 12:43:56;;;;;;;;;;;2.50;99.90;;;;;;6247135;23;19899;-67
2022/12/12 12:46:24;;;;;;;;;;;2.10;99.90;;;;;;6248032;23;19899;-69
2022/12/12 12:48:52;;;;;;;;;;;2.00;99.90;;;;;;6247968;23;19903;-69
2022/12/12 12:51:20;;;;;;;;;;;2.00;99.90;;;;;;6247966;23;19899;-68
2022/12/12 12:53:53;;;;;;;;;;;1.90;99.90;;;;;;6248681;23;20294;-68
2022/12/12 12:56:18;;;;;;;;;;;1.90;99.90;;;;;;6247967;23;19899;-68
2022/12/12 12:58:45;;;;;;;;;;;2.00;99.90;;;;;;6247837;23;20009;-69
2022/12/12 13:01:13;;;;;;;;;;;2.20;99.90;;;;;;6247711;23;19914;-66
2022/12/12 13:03:46;;;;;;;;;;;2.20;99.90;;;;;;6247738;23;19931;-69
2022/12/12 13:06:15;;;;;;;;;;;2.00;99.90;;;;;;6245714;23;19903;-69
2022/12/12 13:08:51;;;;;;;;;;;2.00;99.90;;;;;;6246460;23;19904;-68
2022/12/12 13:11:29;;;;;;;;;;;2.30;99.90;;;;;;6247732;23;20026;-68
2022/12/12 13:13:58;;;;;;;;;;;2.30;99.90;;;;;;6247933;23;19900;-73
2022/12/12 13:16:25;;;;;;;;;;;2.40;99.90;;;;;;6248028;23;20344;-71
2022/12/12 13:19:02;;;;;;;;;;;2.20;99.90;;;;;;6247570;23;19953;-73
2022/12/12 13:21:28;;;;;;;;;;;2.00;99.90;;;;;;6247877;23;19906;-74
2022/12/12 13:23:56;;;;;;;;;;;1.80;99.90;;;;;;6248277;22;19903;-70
2022/12/12 13:26:43;;;;;;;;;;;1.90;99.90;;;;;;6247622;23;19900;-71
2022/12/12 13:29:22;;;;;;;;;;;2.00;99.90;;;;;;6247867;22;19919;-75
2022/12/12 13:32:06;;;;;;;;;;;2.00;99.90;;;;;;6247634;23;19975;-71
2022/12/12 13:34:35;;;;;;;;;;;2.10;99.90;;;;;;6247058;23;19903;-72
2022/12/12 13:37:03;;;;;;;;;;;2.20;99.90;;;;;;6246954;23;19899;-70
2022/12/12 13:39:30;;;;;;;;;;;2.40;99.90;;;;;;6247386;23;20229;-71
2022/12/12 13:42:00;;;;;;;;;;;2.60;99.90;;;;;;6246964;23;19900;-69
2022/12/12 13:44:43;;;;;;;;;;;2.90;99.90;;;;;;6246799;23;20379;-69
2022/12/12 13:47:31;;;;;;;;;;;3.30;99.90;;;;;;6246548;23;19903;-72
2022/12/12 13:50:09;;;;;;;;;;;3.10;99.90;;;;;;6242851;23;19978;-73
2022/12/12 13:52:39;;;;;;;;;;;3.00;99.90;;;;;;6247410;23;20337;-71
2022/12/12 13:55:11;;;;;;;;;;;2.70;99.90;;;;;;6246945;23;20245;-72
2022/12/12 13:57:56;;;;;;;;;;;2.60;99.90;;;;;;6247105;23;19904;-73
2022/12/12 14:00:22;;;;;;;;;;;2.60;99.90;;;;;;6247244;23;19904;-69
2022/12/12 14:02:55;;;;;;;;;;;2.60;99.90;;;;;;6247316;23;20420;-71
2022/12/12 14:05:26;;;;;;;;;;;2.80;99.90;;;;;;6246977;23;19910;-72
2022/12/12 14:08:10;;;;;;;;;;;2.80;99.90;;;;;;6247203;23;19899;-71
2022/12/12 14:10:40;;;;;;;;;;;3.00;99.90;;;;;;6246826;23;19899;-70
2022/12/12 14:13:18;;;;;;;;;;;2.80;99.90;;;;;;6247213;23;19900;-74
2022/12/12 14:15:44;;;;;;;;;;;2.80;99.90;;;;;;6246861;23;19981;-74
2022/12/12 14:18:17;;;;;;;;;;;2.40;99.90;;;;;;6247744;23;20222;-72
2022/12/12 14:20:43;;;;;;;;;;;2.30;99.90;;;;;;6247061;23;20306;-72
2022/12/12 14:23:11;;;;;;;;;;;2.30;99.90;;;;;;6247100;23;19906;-74
2022/12/12 14:25:38;;;;;;;;;;;2.40;99.90;;;;;;6246861;22;19899;-73
2022/12/12 14:28:22;;;;;;;;;;;2.40;99.90;;;;;;6247447;23;19906;-77
2022/12/12 14:30:48;;;;;;;;;;;2.60;99.90;;;;;;6247651;23;19934;-75
2022/12/12 14:33:16;;;;;;;;;;;2.60;99.90;;;;;;6246943;23;19900;-75
2022/12/12 14:35:47;;;;;;;;;;;2.60;99.90;;;;;;6247008;23;19910;-70
2022/12/12 14:38:32;;;;;;;;;;;2.50;99.90;;;;;;6247182;23;19931;-73
2022/12/12 14:41:08;;;;;;;;;;;2.30;99.90;;;;;;6246858;23;19935;-75
2022/12/12 14:43:35;;;;;;;;;;;2.30;99.90;;;;;;6220073;23;19899;-72
2022/12/12 14:46:01;;;;;;;;;;;2.30;99.90;;;;;;6246919;23;20371;-72
2022/12/12 14:48:30;;;;;;;;;;;2.30;99.90;;;;;;6247253;23;19900;-73
2022/12/12 14:51:07;;;;;;;;;;;2.30;99.90;;;;;;6246654;23;19973;-74
2022/12/12 14:53:36;;;;;;;;;;;2.30;99.90;;;;;;6246670;23;19907;-75
2022/12/12 14:56:12;;;;;;;;;;;2.30;99.90;;;;;;6219886;23;19899;-75
2022/12/12 14:58:58;;;;;;;;;;;2.30;99.90;;;;;;6247388;23;19990;-75
2022/12/12 15:01:29;;;;;;;;;;;2.30;99.90;;;;;;6246987;23;19922;-73
2022/12/12 15:03:56;;;;;;;;;;;2.30;99.90;;;;;;6247471;23;20285;-67
2022/12/12 15:06:25;;;;;;;;;;;2.20;99.90;;;;;;6246102;23;20229;-71
2022/12/12 15:08:51;;;;;;;;;;;2.20;99.90;;;;;;6219150;23;19949;-72
2022/12/12 15:11:19;;;;;;;;;;;2.20;99.90;;;;;;6246085;23;20344;-69
2022/12/12 15:13:52;;;;;;;;;;;2.10;99.90;;;;;;6246668;23;19899;-69
2022/12/12 15:16:18;;;;;;;;;;;2.20;99.90;;;;;;6246565;23;19961;-73
2022/12/12 15:18:44;;;;;;;;;;;2.10;99.90;;;;;;6219717;23;19903;-74
2022/12/12 15:21:09;;;;;;;;;;;2.10;99.90;;;;;;6219488;23;20252;-75
2022/12/12 15:23:35;;;;;;;;;;;2.00;99.90;;;;;;6246739;22;20358;-69
2022/12/12 15:26:00;;;;;;;;;;;2.00;99.90;;;;;;6247191;23;19900;-74
2022/12/12 15:28:27;;;;;;;;;;;1.90;99.90;;;;;;6246291;23;19934;-74
2022/12/12 15:30:53;;;;;;;;;;;2.00;99.90;;;;;;6219395;23;19904;-74
2022/12/12 15:33:26;;;;;;;;;;;1.90;99.90;;;;;;6246780;23;20237;-75
2022/12/12 15:35:52;;;;;;;;;;;1.90;99.90;;;;;;6219570;23;19922;-77
2022/12/12 15:38:18;;;;;;;;;;;1.80;99.90;;;;;;6246654;23;19907;-74
2022/12/12 15:40:46;;;;;;;;;;;1.80;99.90;;;;;;6219567;23;19906;-73
2022/12/12 15:43:17;;;;;;;;;;;1.70;99.90;;;;;;6246283;23;20263;-77
2022/12/12 15:45:56;;;;;;;;;;;1.70;99.90;;;;;;6246624;23;19906;-74
2022/12/12 15:48:24;;;;;;;;;;;1.70;99.90;;;;;;6247227;23;19965;-74
2022/12/12 15:50:58;;;;;;;;;;;1.70;99.90;;;;;;6246542;23;19900;-76
2022/12/12 15:53:26;;;;;;;;;;;1.70;99.90;;;;;;6246520;23;19900;-76
2022/12/12 15:55:55;;;;;;;;;;;1.60;99.90;;;;;;6246526;23;19905;-72
2022/12/12 15:58:22;;;;;;;;;;;1.50;99.90;;;;;;6247090;23;19912;-75
2022/12/12 16:00:51;;;;;;;;;;;1.60;99.90;;;;;;6219666;23;20211;-76
2022/12/12 16:03:20;;;;;;;;;;;1.50;99.90;;;;;;6246364;23;20313;-70
2022/12/12 16:06:03;;;;;;;;;;;1.40;99.90;;;;;;6246407;23;19899;-78
2022/12/12 16:08:36;;;;;;;;;;;1.40;99.90;;;;;;6246009;23;19899;-73
2022/12/12 16:11:22;;;;;;;;;;;1.40;99.90;;;;;;6246665;23;19991;-70
2022/12/12 16:13:47;;;;;;;;;;;1.40;99.90;;;;;;6246409;23;19900;-77
2022/12/12 16:16:32;;;;;;;;;;;1.30;99.90;;;;;;6219551;23;19900;-73
2022/12/12 16:18:57;;;;;;;;;;;1.30;99.90;;;;;;6220094;23;20237;-73
2022/12/12 16:21:23;;;;;;;;;;;1.20;99.90;;;;;;6248262;23;19899;-73
2022/12/12 16:23:49;;;;;;;;;;;1.20;99.90;;;;;;6247541;22;19950;-74
2022/12/12 16:26:14;;;;;;;;;;;1.20;99.90;;;;;;6248184;23;19906;-73
2022/12/12 16:28:40;;;;;;;;;;;1.10;99.90;;;;;;6247907;22;19914;-74
2022/12/12 16:31:10;;;;;;;;;;;1.10;99.90;;;;;;6248459;23;20314;-72
2022/12/12 16:33:37;;;;;;;;;;;1.10;99.90;;;;;;6248515;23;19914;-64
2022/12/12 16:36:04;;;;;;;;;;;1.00;99.90;;;;;;6248179;23;19985;-67
2022/12/12 16:38:30;;;;;;;;;;;1.00;99.90;;;;;;6248741;23;19965;-68
2022/12/12 16:40:59;;;;;;;;;;;1.00;99.90;;;;;;6248097;23;19899;-67
2022/12/12 16:43:25;;;;;;;;;;;1.10;99.90;;;;;;6247840;23;19906;-68
2022/12/12 16:45:52;;;;;;;;;;;1.00;99.90;;;;;;6248071;23;19980;-67
2022/12/12 16:48:17;;;;;;;;;;;1.00;99.90;;;;;;6221160;23;19900;-66
2022/12/12 16:50:44;;;;;;;;;;;1.00;99.90;;;;;;6248665;23;19978;-66
2022/12/12 16:53:09;;;;;;;;;;;0.90;99.90;;;;;;6248088;23;19978;-66
2022/12/12 16:55:36;;;;;;;;;;;0.90;99.90;;;;;;6248278;23;19988;-66
2022/12/12 16:58:02;;;;;;;;;;;0.90;99.90;;;;;;6247845;23;19983;-67
2022/12/12 17:00:28;;;;;;;;;;;0.80;99.90;;;;;;6247836;23;19946;-68
2022/12/12 17:02:53;;;;;;;;;;;0.80;99.90;;;;;;6248137;23;19903;-68
2022/12/12 17:05:22;;;;;;;;;;;0.80;99.90;;;;;;6245999;23;19900;-67
2022/12/12 17:07:49;;;;;;;;;;;0.70;99.90;;;;;;6247267;23;20346;-66
2022/12/12 17:10:15;;;;;;;;;;;0.70;99.90;;;;;;6247244;23;19931;-67
2022/12/12 17:12:41;;;;;;;;;;;0.60;99.90;;;;;;6247177;23;20025;-67
2022/12/12 17:15:11;;;;;;;;;;;0.70;99.90;;;;;;6245869;23;19935;-68
2022/12/12 17:17:36;;;;;;;;;;;0.70;99.90;;;;;;6244777;23;19910;-67
2022/12/12 17:20:02;;;;;;;;;;;0.70;99.90;;;;;;6245177;23;20532;-67
2022/12/12 17:22:28;;;;;;;;;;;0.70;99.90;;;;;;6244478;23;19982;-67
2022/12/12 17:24:53;;;;;;;;;;;0.70;99.90;;;;;;6244119;22;19899;-67
2022/12/12 17:27:19;;;;;;;;;;;0.70;99.90;;;;;;6244158;23;19923;-67
2022/12/12 17:29:44;;;;;;;;;;;0.80;99.90;;;;;;6245318;22;19911;-67
2022/12/12 17:32:10;;;;;;;;;;;0.80;99.90;;;;;;6246148;23;19903;-67
2022/12/12 17:34:35;;;;;;;;;;;0.90;99.90;;;;;;6246933;23;19981;-66
2022/12/12 17:37:01;;;;;;;;;;;0.90;99.90;;;;;;6247390;23;19984;-67
2022/12/12 17:39:26;;;;;;;;;;;0.90;99.90;;;;;;6247546;23;19899;-67
2022/12/12 17:41:52;;;;;;;;;;;0.90;99.90;;;;;;6247528;23;19900;-67
2022/12/12 17:44:17;;;;;;;;;;;0.80;99.90;;;;;;6247889;23;19915;-67
2022/12/12 17:46:43;;;;;;;;;;;0.80;99.90;;;;;;6247551;23;20313;-67
2022/12/12 17:49:08;;;;;;;;;;;0.90;99.90;;;;;;6247805;23;19943;-67
2022/12/12 17:51:36;;;;;;;;;;;0.90;99.90;;;;;;6247440;23;20264;-67
2022/12/12 17:54:02;;;;;;;;;;;0.80;99.90;;;;;;6247433;23;19900;-67
2022/12/12 17:56:27;;;;;;;;;;;0.80;99.90;;;;;;6247340;23;19906;-68
2022/12/12 17:58:53;;;;;;;;;;;0.70;99.90;;;;;;6247261;23;19903;-67
2022/12/12 18:01:28;;;;;;;;;;;0.80;99.90;;;;;;6247370;23;19906;-68
2022/12/12 18:03:54;;;;;;;;;;;0.80;99.90;;;;;;6248043;23;19903;-67
2022/12/12 18:06:21;;;;;;;;;;;0.80;99.90;;;;;;6247584;23;20125;-66
2022/12/12 18:08:47;;;;;;;;;;;0.80;99.90;;;;;;6247269;23;19899;-68
2022/12/12 18:11:14;;;;;;;;;;;0.70;99.90;;;;;;6247245;23;19922;-66
2022/12/12 18:13:40;;;;;;;;;;;0.80;99.90;;;;;;6247238;23;19906;-67
2022/12/12 18:16:09;;;;;;;;;;;0.80;99.90;;;;;;6247210;23;20376;-67
2022/12/12 18:18:35;;;;;;;;;;;0.70;99.90;;;;;;6247096;23;19904;-67
2022/12/12 18:21:02;;;;;;;;;;;0.70;99.90;;;;;;6247155;23;20270;-67
2022/12/12 18:23:28;;;;;;;;;;;0.70;99.90;;;;;;6220299;23;19899;-67
2022/12/12 18:25:53;;;;;;;;;;;0.70;99.90;;;;;;6247675;22;20369;-67
2022/12/12 18:28:19;;;;;;;;;;;0.60;99.90;;;;;;6247146;23;19975;-68
2022/12/12 18:30:47;;;;;;;;;;;0.60;99.90;;;;;;6246641;23;19986;-67
2022/12/12 18:33:12;;;;;;;;;;;0.60;99.90;;;;;;6246930;23;19900;-67
2022/12/12 18:35:38;;;;;;;;;;;0.60;99.90;;;;;;6246996;23;20310;-67
2022/12/12 18:38:03;;;;;;;;;;;0.60;99.90;;;;;;6246891;23;19911;-67
2022/12/12 18:40:30;;;;;;;;;;;0.60;99.90;;;;;;6246981;23;19907;-67
2022/12/12 18:42:55;;;;;;;;;;;0.60;99.90;;;;;;6247214;23;19899;-67
2022/12/12 18:45:22;;;;;;;;;;;0.50;99.90;;;;;;6246924;23;19911;-67
2022/12/12 18:47:48;;;;;;;;;;;0.50;99.90;;;;;;6246835;23;19900;-67
2022/12/12 18:50:13;;;;;;;;;;;0.50;99.90;;;;;;6247232;23;19900;-67
2022/12/12 18:52:39;;;;;;;;;;;0.50;99.90;;;;;;6246858;23;19899;-67
2022/12/12 18:55:05;;;;;;;;;;;0.50;99.90;;;;;;6247163;23;19899;-67
2022/12/12 18:57:30;;;;;;;;;;;0.40;99.90;;;;;;6246704;23;19907;-67
2022/12/12 18:59:56;;;;;;;;;;;0.50;99.90;;;;;;6246802;23;19900;-66
2022/12/12 19:02:21;;;;;;;;;;;0.50;99.90;;;;;;6247125;23;19931;-67
2022/12/12 19:04:48;;;;;;;;;;;0.50;99.90;;;;;;6247068;23;19931;-67
2022/12/12 19:07:14;;;;;;;;;;;0.50;99.90;;;;;;6247014;23;19900;-67
2022/12/12 19:09:39;;;;;;;;;;;0.50;99.90;;;;;;6247448;23;19927;-67
2022/12/12 19:12:05;;;;;;;;;;;0.60;99.90;;;;;;6246734;23;19903;-67
2022/12/12 19:14:30;;;;;;;;;;;0.60;99.90;;;;;;6247350;23;20282;-67
2022/12/12 19:16:56;;;;;;;;;;;0.60;99.90;;;;;;6246688;23;19906;-67
2022/12/12 19:19:22;;;;;;;;;;;0.60;99.90;;;;;;6246907;23;19911;-67
2022/12/12 19:21:47;;;;;;;;;;;0.60;99.90;;;;;;6246630;23;20322;-67
2022/12/12 19:24:13;;;;;;;;;;;0.50;99.90;;;;;;6246854;22;19900;-67
2022/12/12 19:26:42;;;;;;;;;;;0.50;99.90;;;;;;6246565;23;19905;-67
2022/12/12 19:29:12;;;;;;;;;;;0.40;99.90;;;;;;6246355;22;19915;-67
2022/12/12 19:31:38;;;;;;;;;;;0.40;99.90;;;;;;6246927;23;19908;-67
2022/12/12 19:34:04;;;;;;;;;;;0.30;99.90;;;;;;6246529;23;20229;-67
2022/12/12 19:36:30;;;;;;;;;;;0.20;99.90;;;;;;6246598;23;19985;-67
2022/12/12 19:38:57;;;;;;;;;;;0.30;99.90;;;;;;6246776;23;20276;-67
2022/12/12 19:41:22;;;;;;;;;;;0.30;99.90;;;;;;6246504;23;19899;-67
2022/12/12 19:43:49;;;;;;;;;;;0.30;99.90;;;;;;6246878;23;20224;-67
2022/12/12 19:46:16;;;;;;;;;;;0.30;99.90;;;;;;6246467;23;19899;-67
2022/12/12 19:48:42;;;;;;;;;;;0.30;99.90;;;;;;6247144;23;19927;-67
2022/12/12 19:51:09;;;;;;;;;;;0.30;99.90;;;;;;6246449;23;19899;-67
2022/12/12 19:53:36;;;;;;;;;;;0.30;99.90;;;;;;6247674;23;19900;-67
2022/12/12 19:56:01;;;;;;;;;;;0.20;99.90;;;;;;6248497;23;20241;-67
2022/12/12 19:58:27;;;;;;;;;;;0.10;99.90;;;;;;6249155;23;19903;-67
2022/12/12 20:00:53;;;;;;;;;;;0.00;99.90;;;;;;6248559;23;19899;-66
2022/12/12 20:03:18;;;;;;;;;;;0.00;99.90;;;;;;6248438;23;20284;-67
2022/12/12 20:05:44;;;;;;;;;;;-0.20;99.90;;;;;;6248838;23;19899;-67
2022/12/12 20:08:09;;;;;;;;;;;-0.10;99.90;;;;;;6248500;23;19900;-67
2022/12/12 20:10:35;;;;;;;;;;;-0.20;99.90;;;;;;6248432;23;19900;-67
2022/12/12 20:13:01;;;;;;;;;;;-0.10;99.90;;;;;;6248706;23;20302;-66
2022/12/12 20:15:26;;;;;;;;;;;-0.20;99.90;;;;;;6248394;23;19914;-67
2022/12/12 20:17:52;;;;;;;;;;;-0.10;99.90;;;;;;6248274;23;20214;-67
2022/12/12 20:20:17;;;;;;;;;;;-0.10;99.90;;;;;;6248671;23;19907;-67
2022/12/12 20:22:43;;;;;;;;;;;-0.10;99.90;;;;;;6248297;23;19899;-67
2022/12/12 20:25:08;;;;;;;;;;;-0.10;99.90;;;;;;6248097;22;19904;-67
2022/12/12 20:27:34;;;;;;;;;;;-0.20;99.90;;;;;;6248946;23;19904;-67
2022/12/12 20:29:59;;;;;;;;;;;-0.10;99.90;;;;;;6248021;23;19953;-67
2022/12/12 20:32:27;;;;;;;;;;;-0.10;99.90;;;;;;6248236;23;19923;-67
2022/12/12 20:34:52;;;;;;;;;;;-0.10;99.90;;;;;;6248937;23;20229;-67
2022/12/12 20:37:18;;;;;;;;;;;0.00;99.90;;;;;;6248466;23;19978;-66
2022/12/12 20:39:43;;;;;;;;;;;-0.10;99.90;;;;;;6248148;23;20230;-67
2022/12/12 20:42:09;;;;;;;;;;;-0.20;99.90;;;;;;6248078;23;19904;-67
2022/12/12 20:44:35;;;;;;;;;;;-0.20;99.90;;;;;;6248090;23;19954;-67
2022/12/12 20:47:01;;;;;;;;;;;-0.40;99.90;;;;;;6248413;23;20317;-67
2022/12/12 20:49:28;;;;;;;;;;;-0.40;99.90;;;;;;6248051;23;19907;-67
2022/12/12 20:51:53;;;;;;;;;;;-0.40;99.90;;;;;;6248358;23;19945;-67
2022/12/12 20:54:21;;;;;;;;;;;-0.30;99.90;;;;;;6248034;23;19978;-67
2022/12/12 20:56:48;;;;;;;;;;;-0.50;99.90;;;;;;6248344;23;19906;-67
2022/12/12 20:59:13;;;;;;;;;;;-0.60;99.90;;;;;;6247865;23;19950;-67
2022/12/12 21:01:39;;;;;;;;;;;-0.50;99.90;;;;;;6247949;23;19900;-67
2022/12/12 21:04:07;;;;;;;;;;;-0.60;99.90;;;;;;6248174;23;19961;-67
2022/12/12 21:06:34;;;;;;;;;;;-0.60;99.90;;;;;;6248174;23;20241;-67
2022/12/12 21:09:01;;;;;;;;;;;-0.60;99.90;;;;;;6248555;23;19900;-67
2022/12/12 21:11:28;;;;;;;;;;;-0.60;99.90;;;;;;6248133;23;19900;-67
2022/12/12 21:13:54;;;;;;;;;;;-0.70;99.90;;;;;;6247797;23;20325;-67
2022/12/12 21:16:23;;;;;;;;;;;-0.70;99.90;;;;;;6247773;23;19927;-67
2022/12/12 21:18:50;;;;;;;;;;;-0.80;99.90;;;;;;6248046;23;19903;-67
2022/12/12 21:21:16;;;;;;;;;;;-0.90;99.90;;;;;;6247761;23;19899;-67
2022/12/12 21:23:42;;;;;;;;;;;-0.90;99.90;;;;;;6247596;22;19906;-67
2022/12/12 21:26:10;;;;;;;;;;;-1.00;99.90;;;;;;6247685;23;19931;-67
2022/12/12 21:28:36;;;;;;;;;;;-1.00;99.90;;;;;;6247721;23;19908;-66
2022/12/12 21:31:04;;;;;;;;;;;-1.00;99.90;;;;;;6248052;23;19896;-66
2022/12/12 21:33:30;;;;;;;;;;;-1.10;99.90;;;;;;6247574;23;19899;-67
2022/12/12 21:36:00;;;;;;;;;;;-1.10;99.90;;;;;;6220753;23;19913;-66
2022/12/12 21:38:26;;;;;;;;;;;-1.10;99.90;;;;;;6247893;23;20207;-66
2022/12/12 21:40:52;;;;;;;;;;;-1.10;99.90;;;;;;6247573;23;20026;-67
2022/12/12 21:43:17;;;;;;;;;;;-1.10;99.90;;;;;;6247530;23;20015;-67
2022/12/12 21:45:43;;;;;;;;;;;-1.20;99.90;;;;;;6247544;23;19907;-67
2022/12/12 21:48:08;;;;;;;;;;;-1.20;99.90;;;;;;6248202;23;19900;-66
2022/12/12 21:50:35;;;;;;;;;;;-1.30;99.90;;;;;;6247460;23;19950;-67
2022/12/12 21:55:45;;;;;;;;;;;-1.30;99.90;;;;;;6247805;23;19906;-67
2022/12/12 21:58:11;;;;;;;;;;;-1.30;99.90;;;;;;6247312;23;19915;-67
2022/12/12 22:00:41;;;;;;;;;;;-1.30;99.90;;;;;;6247350;23;19900;-67
2022/12/12 22:03:07;;;;;;;;;;;-1.30;99.90;;;;;;6248041;23;20025;-67
2022/12/12 22:05:32;;;;;;;;;;;-1.20;99.90;;;;;;6247306;23;19926;-67
2022/12/12 22:07:58;;;;;;;;;;;-1.20;99.90;;;;;;6247618;23;20229;-67
2022/12/12 22:10:23;;;;;;;;;;;-1.30;99.90;;;;;;6247226;23;19982;-67
2022/12/12 22:12:49;;;;;;;;;;;-1.30;99.90;;;;;;6247269;23;20314;-67
2022/12/12 22:15:15;;;;;;;;;;;-1.40;99.90;;;;;;6247217;23;19906;-67
2022/12/12 22:17:41;;;;;;;;;;;-1.50;99.90;;;;;;6247137;23;19907;-67
2022/12/12 22:20:07;;;;;;;;;;;-1.40;99.90;;;;;;6247153;23;19904;-67
2022/12/12 22:22:32;;;;;;;;;;;-1.40;99.90;;;;;;6247539;23;19931;-67
2022/12/12 22:24:58;;;;;;;;;;;-1.40;99.90;;;;;;6247081;22;20233;-67
2022/12/12 22:27:23;;;;;;;;;;;-1.40;99.90;;;;;;6247461;23;19942;-68
2022/12/12 22:29:49;;;;;;;;;;;-1.50;99.90;;;;;;6246847;23;19918;-67
2022/12/12 22:32:14;;;;;;;;;;;-1.50;99.90;;;;;;6247456;23;19907;-67
2022/12/12 22:34:40;;;;;;;;;;;-1.50;99.90;;;;;;6247032;23;19903;-67
2022/12/12 22:37:05;;;;;;;;;;;-1.40;99.90;;;;;;6247301;23;19907;-67
2022/12/12 22:39:31;;;;;;;;;;;-1.50;99.90;;;;;;6246947;23;20314;-66
2022/12/12 22:41:56;;;;;;;;;;;-1.40;99.90;;;;;;6246975;23;19900;-67
2022/12/12 22:44:23;;;;;;;;;;;-1.40;99.90;;;;;;6247625;23;19986;-67
2022/12/12 22:46:49;;;;;;;;;;;-1.40;99.90;;;;;;6247265;23;19899;-66
2022/12/12 22:49:18;;;;;;;;;;;-1.50;99.90;;;;;;6246742;23;19899;-66
2022/12/12 22:51:43;;;;;;;;;;;-1.50;99.90;;;;;;6247253;23;20260;-67
2022/12/12 22:54:09;;;;;;;;;;;-1.60;99.90;;;;;;6219925;23;19900;-67
2022/12/12 22:56:35;;;;;;;;;;;-1.60;99.90;;;;;;6247182;23;19900;-67
2022/12/12 22:59:01;;;;;;;;;;;-1.60;99.90;;;;;;6246963;23;19908;-67
2022/12/12 23:01:27;;;;;;;;;;;-1.60;99.90;;;;;;6247118;23;20230;-67
2022/12/12 23:03:53;;;;;;;;;;;-1.70;99.90;;;;;;6246711;23;20429;-68